createdAt,value
2017-05-18T00:01:15.586Z,20.26
2017-05-18T00:04:10.540Z,20.22
2017-05-18T00:07:05.527Z,20.18
2017-05-18T00:10:00.445Z,20.15
2017-05-18T00:12:55.532Z,20.14
2017-05-18T00:15:50.492Z,20.11
2017-05-18T00:18:45.475Z,20.07
2017-05-18T00:24:35.297Z,19.99
2017-05-18T00:27:30.150Z,19.97
2017-05-18T00:30:25.196Z,19.96
2017-05-18T00:33:20.161Z,19.94
2017-05-18T00:36:15.092Z,19.89
2017-05-18T00:42:04.995Z,19.80
2017-05-18T00:44:59.868Z,19.78
2017-05-18T00:47:54.831Z,19.77
2017-05-18T00:50:49.799Z,19.73
2017-05-18T00:53:44.794Z,19.69
2017-05-18T00:56:39.701Z,19.65
2017-05-18T00:59:34.597Z,19.60
2017-05-18T01:05:24.397Z,19.46
2017-05-18T01:08:19.221Z,19.40
2017-05-18T01:11:14.205Z,19.34
2017-05-18T01:17:04.107Z,19.26
2017-05-18T01:19:59.128Z,19.21
2017-05-18T01:22:54.042Z,19.14
2017-05-18T01:25:49.110Z,19.07
2017-05-18T01:28:43.896Z,19.02
2017-05-18T01:31:38.771Z,18.96
2017-05-18T01:34:33.621Z,18.93
2017-05-18T01:37:28.584Z,18.90
2017-05-18T01:40:23.462Z,18.85
2017-05-18T01:43:18.402Z,18.81
2017-05-18T01:46:13.246Z,18.78
2017-05-18T01:49:08.194Z,18.72
2017-05-18T01:52:03.114Z,18.67
2017-05-18T01:54:58.088Z,18.63
2017-05-18T01:57:53.056Z,18.58
2017-05-18T02:00:48.041Z,18.52
2017-05-18T02:03:42.849Z,18.47
2017-05-18T02:06:37.693Z,18.42
2017-05-18T02:09:32.605Z,18.38
2017-05-18T02:12:27.494Z,18.35
2017-05-18T02:15:22.389Z,18.31
2017-05-18T02:18:17.372Z,18.29
2017-05-18T02:21:12.112Z,18.25
2017-05-18T02:24:06.928Z,18.21
2017-05-18T02:29:56.656Z,18.13
2017-05-18T02:32:51.448Z,18.09
2017-05-18T02:35:46.353Z,18.04
2017-05-18T02:38:41.208Z,18.01
2017-05-18T02:41:35.973Z,17.99
2017-05-18T02:44:30.807Z,17.95
2017-05-18T02:47:25.612Z,17.92
2017-05-18T02:53:15.658Z,17.87
2017-05-18T02:56:10.507Z,17.89
2017-05-18T02:59:05.412Z,17.90
2017-05-18T03:02:00.334Z,17.88
2017-05-18T03:04:55.413Z,17.85
2017-05-18T03:07:50.147Z,17.83
2017-05-18T03:10:44.872Z,17.83
2017-05-18T03:13:39.804Z,17.84
2017-05-18T03:16:34.590Z,17.84
2017-05-18T03:22:24.259Z,17.81
2017-05-18T03:25:19.071Z,17.79
2017-05-18T03:28:13.798Z,17.81
2017-05-18T03:31:08.545Z,17.82
2017-05-18T03:34:03.318Z,17.82
2017-05-18T03:36:57.980Z,17.84
2017-05-18T03:39:52.827Z,17.84
2017-05-18T03:42:47.614Z,17.85
2017-05-18T03:45:42.345Z,17.85
2017-05-18T03:48:37.149Z,17.87
2017-05-18T03:51:31.953Z,17.88
2017-05-18T03:54:26.780Z,17.89
2017-05-18T03:57:21.555Z,17.90
2017-05-18T04:00:16.468Z,17.92
2017-05-18T04:03:11.280Z,17.95
2017-05-18T04:06:06.157Z,17.95
2017-05-18T04:09:01.134Z,17.95
2017-05-18T04:14:50.702Z,17.99
2017-05-18T04:17:45.584Z,18.02
2017-05-18T04:20:40.385Z,18.06
2017-05-18T04:23:35.335Z,18.11
2017-05-18T04:26:30.186Z,18.13
2017-05-18T04:29:25.022Z,18.16
2017-05-18T04:32:19.868Z,18.16
2017-05-18T04:35:14.567Z,18.19
2017-05-18T04:38:09.296Z,18.22
2017-05-18T04:41:04.145Z,18.26
2017-05-18T04:43:58.938Z,18.31
2017-05-18T04:46:53.824Z,18.37
2017-05-18T04:49:48.588Z,18.43
2017-05-18T04:52:43.342Z,18.48
2017-05-18T04:58:32.940Z,18.63
2017-05-18T05:01:27.837Z,18.72
2017-05-18T05:04:22.707Z,18.84
2017-05-18T05:07:17.677Z,18.97
2017-05-18T05:10:12.628Z,19.12
2017-05-18T05:13:07.513Z,19.26
2017-05-18T05:18:57.467Z,19.53
2017-05-18T05:21:52.514Z,19.67
2017-05-18T05:24:47.575Z,19.80
2017-05-18T05:27:42.364Z,19.95
2017-05-18T05:30:37.314Z,20.08
2017-05-18T05:33:32.314Z,20.22
2017-05-18T05:36:27.212Z,20.35
2017-05-18T05:39:22.153Z,20.48
2017-05-18T05:42:17.080Z,20.62
2017-05-18T05:48:07.074Z,20.90
2017-05-18T05:51:02.058Z,21.02
2017-05-18T05:53:57.085Z,21.15
2017-05-18T05:56:52.101Z,21.29
2017-05-18T05:59:47.046Z,21.43
2017-05-18T06:02:42.200Z,21.55
2017-05-18T06:05:37.126Z,21.67
2017-05-18T06:08:32.073Z,21.79
2017-05-18T06:11:26.960Z,21.92
2017-05-18T06:14:21.968Z,22.05
2017-05-18T06:17:17.061Z,22.17
2017-05-18T06:20:12.105Z,22.29
2017-05-18T06:23:06.996Z,22.42
2017-05-18T06:26:02.085Z,22.53
2017-05-18T06:28:57.179Z,22.63
2017-05-18T06:31:52.239Z,22.77
2017-05-18T06:34:47.282Z,22.93
2017-05-18T06:37:42.387Z,23.05
2017-05-18T06:43:32.505Z,23.39
2017-05-18T06:46:27.662Z,23.57
2017-05-18T06:49:22.892Z,23.71
2017-05-18T06:55:13.108Z,23.95
2017-05-18T06:58:08.267Z,24.06
2017-05-18T07:01:03.445Z,24.20
2017-05-18T07:03:58.825Z,24.37
2017-05-18T07:06:54.057Z,24.53
2017-05-18T07:09:49.189Z,24.69
2017-05-18T07:12:44.340Z,24.82
2017-05-18T07:15:39.494Z,25.01
2017-05-18T07:18:34.668Z,25.16
2017-05-18T07:21:29.843Z,25.25
2017-05-18T07:24:25.031Z,25.37
2017-05-18T07:27:20.229Z,25.45
2017-05-18T07:30:15.291Z,25.57
2017-05-18T07:33:10.476Z,25.73
2017-05-18T07:36:05.569Z,25.90
2017-05-18T07:39:00.671Z,26.05
2017-05-18T07:41:55.933Z,26.26
2017-05-18T07:44:51.068Z,26.47
2017-05-18T07:47:46.527Z,26.68
2017-05-18T07:53:37.083Z,27.07
2017-05-18T07:56:32.084Z,27.26
2017-05-18T07:59:27.373Z,27.52
2017-05-18T08:02:22.447Z,27.81
2017-05-18T08:05:17.641Z,28.01
2017-05-18T08:08:12.680Z,28.56
2017-05-18T08:14:03.097Z,29.51
2017-05-18T08:16:58.239Z,30.48
2017-05-18T08:19:53.429Z,31.41
2017-05-18T08:22:48.809Z,32.31
2017-05-18T08:25:44.094Z,32.90
2017-05-18T08:28:39.448Z,33.39
2017-05-18T08:31:34.612Z,33.79
2017-05-18T08:34:29.667Z,34.22
2017-05-18T08:37:24.698Z,34.74
2017-05-18T08:40:19.899Z,34.83
2017-05-18T08:43:15.054Z,34.98
2017-05-18T08:46:10.118Z,34.77
2017-05-18T08:49:05.170Z,34.73
2017-05-18T08:52:00.346Z,34.74
2017-05-18T08:54:55.571Z,34.82
2017-05-18T08:57:50.878Z,34.94
2017-05-18T09:00:45.905Z,34.84
2017-05-18T09:03:40.911Z,34.70
2017-05-18T09:06:36.013Z,34.73
2017-05-18T09:09:31.272Z,34.73
2017-05-18T09:12:26.650Z,34.76
2017-05-18T09:15:21.991Z,34.79
2017-05-18T09:18:17.237Z,34.75
2017-05-18T09:21:12.587Z,34.66
2017-05-18T09:24:07.932Z,34.66
2017-05-18T09:27:03.317Z,34.40
2017-05-18T09:29:58.670Z,34.19
2017-05-18T09:32:53.979Z,33.92
2017-05-18T09:35:49.290Z,33.90
2017-05-18T09:38:44.425Z,33.98
2017-05-18T09:41:39.718Z,34.13
2017-05-18T09:44:35.065Z,34.26
2017-05-18T09:47:30.372Z,34.56
2017-05-18T09:50:25.594Z,34.62
2017-05-18T09:53:20.889Z,34.86
2017-05-18T09:56:16.118Z,34.92
2017-05-18T09:59:11.517Z,34.92
2017-05-18T10:02:06.958Z,35.04
2017-05-18T10:05:02.475Z,35.20
2017-05-18T10:07:57.861Z,35.40
2017-05-18T10:10:53.318Z,35.63
2017-05-18T10:13:48.804Z,35.81
2017-05-18T10:16:44.428Z,36.01
2017-05-18T10:19:39.978Z,36.15
2017-05-18T10:22:35.473Z,36.25
2017-05-18T10:25:31.031Z,36.01
2017-05-18T10:28:26.549Z,36.00
2017-05-18T10:31:22.048Z,36.02
2017-05-18T10:34:17.418Z,35.91
2017-05-18T10:37:12.742Z,35.68
2017-05-18T10:40:08.224Z,35.34
2017-05-18T10:43:03.691Z,34.80
2017-05-18T10:45:59.009Z,34.28
2017-05-18T10:48:54.257Z,33.93
2017-05-18T10:51:49.538Z,33.62
2017-05-18T10:54:44.816Z,33.19
2017-05-18T10:57:40.035Z,32.73
2017-05-18T11:00:35.047Z,32.22
2017-05-18T11:03:30.225Z,31.92
2017-05-18T11:06:25.358Z,31.66
2017-05-18T11:09:20.516Z,31.43
2017-05-18T11:12:15.675Z,31.12
2017-05-18T11:15:10.745Z,30.82
2017-05-18T11:18:05.919Z,30.56
2017-05-18T11:21:01.045Z,30.33
2017-05-18T11:23:56.141Z,30.17
2017-05-18T11:26:51.328Z,30.02
2017-05-18T11:29:46.290Z,29.72
2017-05-18T11:32:41.411Z,29.55
2017-05-18T11:35:36.560Z,29.41
2017-05-18T11:38:31.559Z,29.26
2017-05-18T11:41:26.883Z,29.16
2017-05-18T11:47:17.274Z,28.91
2017-05-18T11:50:12.425Z,28.81
2017-05-18T11:53:07.636Z,28.69
2017-05-18T11:56:02.748Z,28.64
2017-05-18T11:58:57.992Z,28.58
2017-05-18T12:01:53.185Z,28.50
2017-05-18T12:04:48.417Z,28.45
2017-05-18T12:07:43.502Z,28.39
2017-05-18T12:10:38.803Z,28.33
2017-05-18T12:13:33.851Z,28.28
2017-05-18T12:16:29.085Z,28.25
2017-05-18T12:19:24.275Z,28.22
2017-05-18T12:22:19.504Z,28.19
2017-05-18T12:25:14.562Z,28.13
2017-05-18T12:28:09.860Z,28.07
2017-05-18T12:31:04.956Z,28.03
2017-05-18T12:34:00.158Z,28.03
2017-05-18T12:36:55.415Z,28.05
2017-05-18T12:39:50.712Z,28.06
2017-05-18T12:42:45.927Z,28.04
2017-05-18T12:48:36.391Z,28.02
2017-05-18T12:51:31.672Z,28.01
2017-05-18T12:57:22.047Z,28.01
2017-05-18T13:00:17.240Z,28.01
2017-05-18T13:03:12.356Z,28.01
2017-05-18T13:06:07.537Z,28.00
2017-05-18T13:09:02.753Z,27.97
2017-05-18T13:11:58.098Z,27.93
2017-05-18T13:17:48.529Z,27.88
2017-05-18T13:20:43.784Z,27.86
2017-05-18T13:23:38.933Z,27.86
2017-05-18T13:29:29.578Z,27.83
2017-05-18T13:32:24.794Z,27.83
2017-05-18T13:35:20.093Z,27.83
2017-05-18T13:38:15.542Z,27.83
2017-05-18T13:41:10.564Z,27.80
2017-05-18T13:44:05.840Z,27.78
2017-05-18T13:47:01.305Z,27.78
2017-05-18T13:52:51.439Z,27.71
2017-05-18T13:55:46.608Z,27.71
2017-05-18T13:58:41.926Z,27.71
2017-05-18T14:01:37.290Z,27.68
2017-05-18T14:04:32.494Z,27.55
2017-05-18T14:07:27.709Z,27.44
2017-05-18T14:10:22.959Z,27.36
2017-05-18T14:13:18.163Z,27.31
2017-05-18T14:16:13.348Z,27.26
2017-05-18T14:19:08.561Z,27.23
2017-05-18T14:22:03.621Z,27.18
2017-05-18T14:24:58.787Z,27.15
2017-05-18T14:27:53.924Z,27.13
2017-05-18T14:30:49.038Z,27.08
2017-05-18T14:33:44.148Z,27.08
2017-05-18T14:36:39.239Z,27.04
2017-05-18T14:39:34.464Z,27.05
2017-05-18T14:42:29.659Z,27.08
2017-05-18T14:45:24.807Z,27.09
2017-05-18T14:51:15.261Z,27.13
2017-05-18T14:54:10.467Z,27.15
2017-05-18T14:57:05.578Z,27.19
2017-05-18T15:00:00.780Z,27.21
2017-05-18T15:02:56.070Z,27.19
2017-05-18T15:05:51.227Z,27.19
2017-05-18T15:08:46.432Z,27.21
2017-05-18T15:11:41.620Z,27.21
2017-05-18T15:14:36.783Z,27.21
2017-05-18T15:17:32.011Z,27.20
2017-05-18T15:20:27.210Z,27.21
2017-05-18T15:23:22.508Z,27.23
2017-05-18T15:26:17.756Z,27.25
2017-05-18T15:29:13.064Z,27.27
2017-05-18T15:32:08.226Z,27.22
2017-05-18T15:35:03.602Z,27.16
2017-05-18T15:37:58.779Z,27.16
2017-05-18T15:40:53.890Z,27.12
2017-05-18T15:43:49.020Z,27.13
2017-05-18T15:46:44.196Z,27.18
2017-05-18T15:49:39.422Z,27.22
2017-05-18T15:52:34.566Z,27.23
2017-05-18T15:55:29.700Z,27.17
2017-05-18T15:58:24.895Z,27.15
2017-05-18T16:04:15.182Z,27.20
2017-05-18T16:07:10.325Z,27.25
2017-05-18T16:10:05.489Z,27.28
2017-05-18T16:13:00.714Z,27.30
2017-05-18T16:15:55.878Z,27.27
2017-05-18T16:18:51.030Z,27.26
2017-05-18T16:21:46.253Z,27.27
2017-05-18T16:24:41.431Z,27.29
2017-05-18T16:27:36.604Z,27.30
2017-05-18T16:30:31.828Z,27.29
2017-05-18T16:33:26.796Z,27.31
2017-05-18T16:39:17.063Z,27.30
2017-05-18T16:42:12.319Z,27.31
2017-05-18T16:45:07.625Z,27.33
2017-05-18T16:48:02.633Z,27.31
2017-05-18T16:50:57.760Z,27.28
2017-05-18T16:53:52.819Z,27.30
2017-05-18T16:56:47.932Z,27.32
2017-05-18T16:59:43.214Z,27.34
2017-05-18T17:02:38.320Z,27.35
2017-05-18T17:05:33.454Z,27.31
2017-05-18T17:08:28.620Z,27.29
2017-05-18T17:11:23.712Z,27.29
2017-05-18T17:14:18.880Z,27.27
2017-05-18T17:17:14.136Z,27.26
2017-05-18T17:20:09.262Z,27.26
2017-05-18T17:23:04.465Z,27.26
2017-05-18T17:25:59.644Z,27.26
2017-05-18T17:28:54.806Z,27.26
2017-05-18T17:31:49.859Z,27.24
2017-05-18T17:34:44.993Z,27.24
2017-05-18T17:37:40.221Z,27.18
2017-05-18T17:40:35.253Z,27.13
2017-05-18T17:46:25.489Z,27.16
2017-05-18T17:49:20.688Z,27.17
2017-05-18T17:52:16.149Z,27.18
2017-05-18T17:55:11.283Z,27.14
2017-05-18T17:58:06.454Z,27.10
2017-05-18T18:01:01.492Z,27.07
2017-05-18T18:03:56.610Z,27.04
2017-05-18T18:06:51.765Z,26.98
2017-05-18T18:09:46.904Z,26.93
2017-05-18T18:12:42.111Z,26.90
2017-05-18T18:15:37.295Z,26.86
2017-05-18T18:18:32.363Z,26.83
2017-05-18T18:21:27.474Z,26.80
2017-05-18T18:24:22.632Z,26.76
2017-05-18T18:30:13.027Z,26.68
2017-05-18T18:33:08.067Z,26.64
2017-05-18T18:36:03.303Z,26.59
2017-05-18T18:38:58.471Z,26.54
2017-05-18T18:41:53.674Z,26.51
2017-05-18T18:44:49.169Z,26.46
2017-05-18T18:47:44.064Z,26.41
2017-05-18T18:50:39.271Z,26.37
2017-05-18T18:53:34.525Z,26.32
2017-05-18T18:56:29.728Z,26.28
2017-05-18T18:59:24.857Z,26.24
2017-05-18T19:02:19.943Z,26.17
2017-05-18T19:11:05.261Z,26.01
2017-05-18T19:14:00.523Z,25.94
2017-05-18T19:16:55.635Z,25.87
2017-05-18T19:19:50.723Z,25.80
2017-05-18T19:22:45.936Z,25.74
2017-05-18T19:25:41.040Z,25.70
2017-05-18T19:28:36.126Z,25.63
2017-05-18T19:31:31.252Z,25.56
2017-05-18T19:34:26.298Z,25.46
2017-05-18T19:37:21.333Z,25.38
2017-05-18T19:40:16.367Z,25.29
2017-05-18T19:43:11.462Z,25.19
2017-05-18T19:46:06.515Z,25.10
2017-05-18T19:49:01.681Z,25.02
2017-05-18T19:51:56.766Z,24.92
2017-05-18T19:54:51.726Z,24.83
2017-05-18T19:57:46.803Z,24.77
2017-05-18T20:00:41.872Z,24.71
2017-05-18T20:03:36.936Z,24.62
2017-05-18T20:06:31.943Z,24.54
2017-05-18T20:09:26.991Z,24.46
2017-05-18T20:12:22.079Z,24.38
2017-05-18T20:18:12.071Z,24.23
2017-05-18T20:21:07.149Z,24.16
2017-05-18T20:24:02.137Z,24.07
2017-05-18T20:26:57.197Z,24.01
2017-05-18T20:29:52.298Z,23.94
2017-05-18T20:32:47.349Z,23.87
2017-05-18T20:35:42.375Z,23.79
2017-05-18T20:41:32.506Z,23.65
2017-05-18T20:44:27.547Z,23.57
2017-05-18T20:47:22.469Z,23.52
2017-05-18T20:50:17.482Z,23.45
2017-05-18T20:53:12.590Z,23.36
2017-05-18T20:56:07.553Z,23.30
2017-05-18T20:59:02.550Z,23.25
2017-05-18T21:01:57.514Z,23.19
2017-05-18T21:04:52.539Z,23.13
2017-05-18T21:07:47.787Z,23.07
2017-05-18T21:10:42.818Z,22.99
2017-05-18T21:13:37.898Z,22.93
2017-05-18T21:16:32.886Z,22.88
2017-05-18T21:19:27.884Z,22.82
2017-05-18T21:22:22.899Z,22.76
2017-05-18T21:25:17.817Z,22.72
2017-05-18T21:28:12.700Z,22.65
2017-05-18T21:31:07.574Z,22.62
2017-05-18T21:34:02.580Z,22.57
2017-05-18T21:36:57.534Z,22.52
2017-05-18T21:39:52.467Z,22.48
2017-05-18T21:42:47.458Z,22.43
2017-05-18T21:45:42.378Z,22.37
2017-05-18T21:48:37.378Z,22.31
2017-05-18T21:51:32.249Z,22.26
2017-05-18T21:54:27.179Z,22.20
2017-05-18T21:57:22.136Z,22.15
2017-05-18T22:00:17.069Z,22.08
2017-05-18T22:06:06.989Z,21.99
2017-05-18T22:09:01.841Z,21.94
2017-05-18T22:11:56.764Z,21.89
2017-05-18T22:14:51.554Z,21.85
2017-05-18T22:17:46.504Z,21.81
2017-05-18T22:20:41.421Z,21.77
2017-05-18T22:23:36.389Z,21.75
2017-05-18T22:26:31.629Z,21.73
2017-05-18T22:29:26.592Z,21.69
2017-05-18T22:32:21.502Z,21.64
2017-05-18T22:35:16.437Z,21.60
2017-05-18T22:38:11.375Z,21.55
2017-05-18T22:41:06.540Z,21.51
2017-05-18T22:44:01.434Z,21.48
2017-05-18T22:46:56.449Z,21.44
2017-05-18T22:49:51.401Z,21.40
2017-05-18T22:55:41.324Z,21.31
2017-05-18T22:58:36.208Z,21.24
2017-05-18T23:04:26.097Z,21.15
2017-05-18T23:07:20.829Z,21.11
2017-05-18T23:10:15.776Z,21.06
2017-05-18T23:13:10.678Z,21.02
2017-05-18T23:16:05.583Z,20.98
2017-05-18T23:19:00.448Z,20.93
2017-05-18T23:21:55.432Z,20.89
2017-05-18T23:24:50.322Z,20.82
2017-05-18T23:27:45.166Z,20.77
2017-05-18T23:30:40.110Z,20.71
2017-05-18T23:33:35.074Z,20.68
2017-05-18T23:36:30.089Z,20.63
2017-05-18T23:42:19.849Z,20.54
2017-05-18T23:48:09.704Z,20.47
2017-05-18T23:51:04.594Z,20.42
2017-05-18T23:53:59.606Z,20.38
2017-05-18T23:56:54.448Z,20.34
